createdAt,value
2022-10-11T00:00:12.702Z,93.73
2022-10-11T00:02:39.309Z,93.57
2022-10-11T00:05:07.200Z,92.79
2022-10-11T00:07:33.927Z,92.95
2022-10-11T00:10:00.629Z,93.18
2022-10-11T00:12:27.288Z,93.44
2022-10-11T00:14:53.903Z,93.85
2022-10-11T00:17:20.537Z,94.29
2022-10-11T00:19:47.178Z,94.45
2022-10-11T00:22:14.187Z,94.30
2022-10-11T00:24:40.845Z,94.23
2022-10-11T00:27:07.861Z,93.92
2022-10-11T00:29:34.782Z,94.36
2022-10-11T00:32:01.395Z,95.20
2022-10-11T00:34:28.201Z,95.26
2022-10-11T00:36:54.818Z,95.74
2022-10-11T00:39:21.834Z,96.17
2022-10-11T00:41:49.452Z,96.20
2022-10-11T00:44:27.156Z,96.38
2022-10-11T00:47:01.823Z,96.99
2022-10-11T00:49:45.243Z,97.38
2022-10-11T00:52:22.399Z,97.91
2022-10-11T00:54:49.514Z,98.33
2022-10-11T00:57:24.760Z,98.34
2022-10-11T00:59:55.601Z,99.06
2022-10-11T01:02:24.612Z,99.07
2022-10-11T01:05:11.399Z,99.02
2022-10-11T01:07:41.648Z,99.22
2022-10-11T01:10:08.920Z,99.64
2022-10-11T01:12:52.755Z,99.98
2022-10-11T01:15:38.231Z,99.92
2022-10-11T01:18:35.673Z,100.00
2022-10-11T01:21:22.649Z,100.00
2022-10-11T01:24:35.888Z,100.00
2022-10-11T01:27:36.962Z,100.00
2022-10-11T01:30:25.227Z,100.00
2022-10-11T01:33:21.078Z,100.00
2022-10-11T01:36:05.770Z,100.00
2022-10-11T01:38:45.857Z,100.00
2022-10-11T01:41:23.596Z,100.00
2022-10-11T01:43:56.886Z,100.00
2022-10-11T01:46:25.060Z,100.00
2022-10-11T01:48:59.462Z,100.00
2022-10-11T01:51:50.188Z,100.00
2022-10-11T01:55:04.045Z,100.00
2022-10-11T01:57:52.364Z,100.00
2022-10-11T02:00:21.691Z,100.00
2022-10-11T02:03:45.654Z,100.00
2022-10-11T02:06:56.876Z,100.00
2022-10-11T02:09:47.937Z,100.00
2022-10-11T02:12:27.912Z,100.00
2022-10-11T02:14:58.145Z,100.00
2022-10-11T02:17:34.434Z,100.00
2022-10-11T02:20:11.653Z,100.00
2022-10-11T02:22:45.980Z,100.00
2022-10-11T02:25:23.410Z,100.00
2022-10-11T02:27:57.395Z,100.00
2022-10-11T02:30:24.112Z,100.00
2022-10-11T02:32:54.370Z,100.00
2022-10-11T02:35:29.496Z,100.00
2022-10-11T02:38:30.418Z,100.00
2022-10-11T02:41:10.962Z,100.00
2022-10-11T02:43:46.581Z,100.00
2022-10-11T02:46:17.561Z,100.00
2022-10-11T02:48:44.527Z,100.00
2022-10-11T02:51:14.386Z,100.00
2022-10-11T02:53:41.162Z,100.00
2022-10-11T02:56:08.522Z,100.00
2022-10-11T02:58:35.415Z,100.00
2022-10-11T03:01:02.076Z,100.00
2022-10-11T03:03:28.792Z,100.00
2022-10-11T03:06:04.541Z,100.00
2022-10-11T03:08:31.697Z,100.00
2022-10-11T03:10:58.630Z,100.00
2022-10-11T03:13:25.251Z,100.00
2022-10-11T03:16:02.787Z,100.00
2022-10-11T03:18:31.725Z,100.00
2022-10-11T03:20:58.621Z,100.00
2022-10-11T03:23:25.566Z,100.00
2022-10-11T03:25:52.268Z,100.00
2022-10-11T03:28:20.600Z,100.00
2022-10-11T03:30:51.250Z,100.00
2022-10-11T03:33:18.891Z,100.00
2022-10-11T03:35:48.213Z,100.00
2022-10-11T03:38:21.163Z,100.00
2022-10-11T03:40:49.304Z,100.00
2022-10-11T03:43:16.972Z,100.00
2022-10-11T03:45:43.990Z,100.00
2022-10-11T03:48:12.018Z,100.00
2022-10-11T03:50:39.393Z,100.00
2022-10-11T03:53:07.535Z,100.00
2022-10-11T03:55:34.491Z,100.00
2022-10-11T03:58:01.412Z,100.00
2022-10-11T04:00:28.107Z,100.00
2022-10-11T04:02:55.075Z,100.00
2022-10-11T04:05:22.067Z,100.00
2022-10-11T04:07:48.969Z,100.00
2022-10-11T04:10:15.700Z,100.00
2022-10-11T04:12:42.455Z,100.00
2022-10-11T04:15:13.440Z,100.00
2022-10-11T04:17:40.968Z,100.00
2022-10-11T04:20:09.160Z,100.00
2022-10-11T04:22:36.151Z,100.00
2022-10-11T04:25:03.135Z,100.00
2022-10-11T04:27:30.431Z,100.00
2022-10-11T04:29:57.167Z,100.00
2022-10-11T04:32:24.054Z,100.00
2022-10-11T04:34:51.299Z,100.00
2022-10-11T04:37:18.783Z,100.00
2022-10-11T04:39:45.427Z,100.00
2022-10-11T04:42:13.869Z,100.00
2022-10-11T04:44:40.661Z,100.00
2022-10-11T04:47:07.538Z,100.00
2022-10-11T04:49:34.485Z,100.00
2022-10-11T04:52:01.414Z,100.00
2022-10-11T04:54:28.204Z,100.00
2022-10-11T04:56:55.070Z,100.00
2022-10-11T04:59:22.011Z,100.00
2022-10-11T05:01:48.738Z,100.00
2022-10-11T05:04:15.823Z,100.00
2022-10-11T05:06:42.666Z,100.00
2022-10-11T05:09:09.499Z,100.00
2022-10-11T05:11:36.221Z,100.00
2022-10-11T05:14:03.262Z,100.00
2022-10-11T05:16:30.222Z,100.00
2022-10-11T05:18:56.964Z,100.00
2022-10-11T05:21:29.651Z,100.00
2022-10-11T05:23:57.405Z,100.00
2022-10-11T05:26:27.683Z,100.00
2022-10-11T05:28:55.508Z,100.00
2022-10-11T05:31:23.129Z,100.00
2022-10-11T05:33:50.091Z,100.00
2022-10-11T05:36:17.993Z,100.00
2022-10-11T05:38:44.687Z,100.00
2022-10-11T05:41:15.418Z,100.00
2022-10-11T05:43:44.482Z,100.00
2022-10-11T05:46:12.442Z,100.00
2022-10-11T05:48:40.105Z,100.00
2022-10-11T05:51:10.348Z,100.00
2022-10-11T05:53:38.649Z,100.00
2022-10-11T05:56:16.727Z,100.00
2022-10-11T05:58:43.368Z,100.00
2022-10-11T06:01:18.791Z,100.00
2022-10-11T06:03:45.607Z,100.00
2022-10-11T06:06:12.507Z,100.00
2022-10-11T06:08:39.352Z,100.00
2022-10-11T06:11:20.427Z,100.00
2022-10-11T06:13:47.310Z,100.00
2022-10-11T06:16:14.756Z,100.00
2022-10-11T06:18:41.543Z,100.00
2022-10-11T06:21:08.299Z,100.00
2022-10-11T06:23:34.993Z,100.00
2022-10-11T06:26:06.871Z,100.00
2022-10-11T06:28:36.258Z,100.00
2022-10-11T06:31:06.062Z,100.00
2022-10-11T06:33:34.397Z,100.00
2022-10-11T06:36:09.754Z,100.00
2022-10-11T06:38:39.800Z,100.00
2022-10-11T06:41:30.548Z,100.00
2022-10-11T06:43:58.018Z,100.00
2022-10-11T06:46:27.663Z,100.00
2022-10-11T06:48:56.451Z,100.00
2022-10-11T06:51:23.676Z,100.00
2022-10-11T06:53:56.799Z,100.00
2022-10-11T06:56:25.717Z,100.00
2022-10-11T06:58:55.196Z,100.00
2022-10-11T07:01:23.859Z,98.35
2022-10-11T07:03:54.673Z,95.50
2022-10-11T07:06:25.475Z,93.61
2022-10-11T07:08:52.726Z,90.45
2022-10-11T07:11:23.527Z,91.22
2022-10-11T07:13:54.277Z,94.98
2022-10-11T07:16:23.187Z,98.43
2022-10-11T07:18:59.840Z,99.87
2022-10-11T07:21:28.933Z,99.75
2022-10-11T07:23:55.609Z,99.39
2022-10-11T07:26:22.452Z,99.11
2022-10-11T07:28:49.410Z,98.54
2022-10-11T07:31:22.050Z,98.01
2022-10-11T07:33:48.966Z,93.15
2022-10-11T07:36:16.635Z,88.98
2022-10-11T07:38:46.623Z,84.36
2022-10-11T07:41:14.555Z,85.63
2022-10-11T07:43:43.529Z,84.27
2022-10-11T07:46:11.373Z,84.25
2022-10-11T07:48:39.661Z,82.86
2022-10-11T07:51:17.615Z,81.90
2022-10-11T07:53:54.159Z,79.12
2022-10-11T07:56:25.733Z,79.04
2022-10-11T07:58:57.142Z,80.00
2022-10-11T08:01:24.679Z,85.47
2022-10-11T08:03:52.484Z,89.05
2022-10-11T08:06:23.051Z,85.83
2022-10-11T08:08:50.227Z,82.09
2022-10-11T08:11:30.171Z,82.95
2022-10-11T08:13:58.801Z,83.45
2022-10-11T08:16:25.796Z,84.46
2022-10-11T08:18:54.401Z,86.78
2022-10-11T08:21:21.423Z,87.79
2022-10-11T08:23:48.325Z,87.79
2022-10-11T08:26:15.939Z,86.62
2022-10-11T08:28:42.760Z,86.93
2022-10-11T08:31:14.350Z,86.97
2022-10-11T08:33:41.782Z,84.59
2022-10-11T08:36:09.919Z,84.39
2022-10-11T08:38:38.104Z,84.06
2022-10-11T08:41:23.756Z,82.00
2022-10-11T08:44:27.717Z,80.00
2022-10-11T08:47:12.762Z,79.60
2022-10-11T08:49:39.965Z,79.17
2022-10-11T08:52:21.157Z,81.11
2022-10-11T08:54:56.007Z,81.57
2022-10-11T08:57:27.698Z,81.98
2022-10-11T09:00:02.479Z,78.88
2022-10-11T09:02:55.582Z,80.63
2022-10-11T09:05:29.424Z,80.09
2022-10-11T09:08:25.001Z,78.92
2022-10-11T09:11:07.123Z,80.11
2022-10-11T09:14:35.775Z,76.87
2022-10-11T09:17:24.636Z,78.87
2022-10-11T09:20:21.941Z,79.82
2022-10-11T09:23:13.069Z,78.95
2022-10-11T09:26:20.416Z,78.61
2022-10-11T09:29:27.127Z,79.34
2022-10-11T09:31:57.116Z,80.76
2022-10-11T09:34:32.288Z,79.50
2022-10-11T09:37:32.703Z,79.97
2022-10-11T09:40:34.817Z,79.16
2022-10-11T09:43:01.585Z,77.00
2022-10-11T09:45:28.655Z,77.34
2022-10-11T09:47:59.658Z,76.28
2022-10-11T09:50:29.739Z,77.28
2022-10-11T09:53:00.599Z,76.11
2022-10-11T09:56:02.101Z,76.36
2022-10-11T09:58:35.958Z,75.77
2022-10-11T10:01:11.900Z,75.59
2022-10-11T10:03:43.071Z,74.74
2022-10-11T10:06:28.311Z,72.55
2022-10-11T10:08:55.839Z,69.35
2022-10-11T10:11:22.673Z,68.32
2022-10-11T10:13:56.876Z,69.48
2022-10-11T10:16:35.225Z,67.16
2022-10-11T10:19:06.325Z,67.31
2022-10-11T10:21:47.345Z,67.49
2022-10-11T10:24:42.425Z,64.60
2022-10-11T10:27:24.007Z,66.39
2022-10-11T10:30:09.090Z,65.76
2022-10-11T10:32:47.549Z,66.44
2022-10-11T10:35:41.922Z,69.56
2022-10-11T10:38:34.319Z,65.76
2022-10-11T10:41:14.531Z,66.29
2022-10-11T10:43:46.003Z,66.47
2022-10-11T10:46:46.472Z,64.25
2022-10-11T10:53:04.646Z,67.16
2022-10-11T10:55:43.023Z,66.42
2022-10-11T10:58:32.127Z,63.27
2022-10-11T11:01:22.816Z,62.07
2022-10-11T11:04:07.398Z,63.33
2022-10-11T11:07:22.913Z,63.73
2022-10-11T11:10:07.358Z,63.74
2022-10-11T11:13:13.656Z,64.59
2022-10-11T11:16:12.927Z,63.73
2022-10-11T11:19:17.610Z,64.45
2022-10-11T11:22:06.147Z,65.57
2022-10-11T11:25:32.525Z,65.22
2022-10-11T11:28:40.000Z,64.90
2022-10-11T11:31:41.849Z,66.19
2022-10-11T11:34:37.985Z,66.21
2022-10-11T11:37:25.313Z,66.26
2022-10-11T11:40:00.721Z,64.07
2022-10-11T11:42:57.097Z,64.33
2022-10-11T11:45:55.575Z,63.21
2022-10-11T11:48:26.050Z,62.06
2022-10-11T11:51:30.412Z,63.07
2022-10-11T11:54:36.477Z,64.67
2022-10-11T11:57:34.908Z,64.58
2022-10-11T12:00:20.697Z,64.62
2022-10-11T12:02:58.755Z,63.50
2022-10-11T12:05:33.784Z,62.50
2022-10-11T12:08:05.388Z,63.29
2022-10-11T12:11:00.291Z,63.10
2022-10-11T12:13:37.304Z,59.81
2022-10-11T12:16:03.818Z,60.88
2022-10-11T12:18:34.028Z,60.11
2022-10-11T12:21:21.942Z,61.01
2022-10-11T12:23:55.372Z,61.25
2022-10-11T12:26:27.678Z,59.96
2022-10-11T12:29:20.732Z,59.62
2022-10-11T12:32:31.679Z,60.68
2022-10-11T12:35:33.451Z,58.49
2022-10-11T12:38:28.694Z,58.65
2022-10-11T12:41:26.090Z,55.21
2022-10-11T12:44:22.992Z,55.83
2022-10-11T12:46:55.392Z,58.93
2022-10-11T12:49:28.409Z,59.35
2022-10-11T12:52:22.198Z,60.05
2022-10-11T12:55:13.509Z,60.62
2022-10-11T12:58:17.419Z,61.46
2022-10-11T13:01:03.976Z,61.70
2022-10-11T13:03:37.334Z,61.45
2022-10-11T13:06:29.267Z,59.69
2022-10-11T13:09:05.633Z,58.74
2022-10-11T13:11:48.376Z,59.28
2022-10-11T13:14:23.813Z,58.98
2022-10-11T13:17:16.912Z,58.70
2022-10-11T13:19:43.840Z,59.85
2022-10-11T13:22:22.990Z,59.44
2022-10-11T13:24:49.998Z,57.74
2022-10-11T13:27:27.655Z,56.64
2022-10-11T13:30:00.251Z,56.24
2022-10-11T13:32:30.722Z,56.68
2022-10-11T13:35:14.469Z,57.45
2022-10-11T13:37:47.351Z,57.79
2022-10-11T13:40:21.876Z,59.08
2022-10-11T13:42:52.085Z,58.23
2022-10-11T13:45:24.445Z,58.90
2022-10-11T13:47:54.563Z,57.44
2022-10-11T13:50:34.606Z,57.65
2022-10-11T13:53:24.486Z,58.69
2022-10-11T13:56:02.281Z,58.77
2022-10-11T13:58:46.263Z,58.38
2022-10-11T14:01:25.467Z,57.18
2022-10-11T14:04:01.644Z,57.74
2022-10-11T14:07:02.308Z,58.31
2022-10-11T14:09:38.365Z,59.17
2022-10-11T14:12:44.280Z,58.06
2022-10-11T14:15:31.044Z,57.17
2022-10-11T14:18:00.327Z,57.45
2022-10-11T14:20:41.740Z,57.34
2022-10-11T14:23:08.353Z,56.65
2022-10-11T14:25:35.397Z,56.59
2022-10-11T14:28:02.126Z,57.98
2022-10-11T14:30:31.555Z,58.28
2022-10-11T14:33:02.585Z,59.21
2022-10-11T14:35:32.403Z,59.48
2022-10-11T14:37:59.870Z,58.81
2022-10-11T14:40:30.379Z,59.53
2022-10-11T14:42:57.938Z,58.96
2022-10-11T14:45:25.494Z,59.74
2022-10-11T14:47:52.195Z,57.18
2022-10-11T14:50:40.525Z,55.45
2022-10-11T14:53:10.282Z,56.21
2022-10-11T14:55:39.401Z,55.89
2022-10-11T14:58:08.194Z,56.41
2022-10-11T15:00:37.055Z,57.05
2022-10-11T15:03:07.132Z,56.57
2022-10-11T15:05:35.898Z,56.16
2022-10-11T15:08:05.745Z,57.02
2022-10-11T15:10:40.861Z,57.34
2022-10-11T15:13:09.072Z,57.29
2022-10-11T15:15:40.887Z,58.30
2022-10-11T15:18:13.678Z,60.31
2022-10-11T15:20:45.179Z,59.71
2022-10-11T15:23:12.573Z,58.37
2022-10-11T15:25:41.730Z,59.55
2022-10-11T15:28:19.282Z,60.12
2022-10-11T15:30:46.023Z,62.17
2022-10-11T15:33:13.060Z,62.40
2022-10-11T15:35:39.679Z,64.01
2022-10-11T15:38:06.320Z,65.48
2022-10-11T15:40:36.053Z,67.70
2022-10-11T15:43:03.739Z,68.93
2022-10-11T15:45:31.084Z,66.85
2022-10-11T15:47:59.155Z,67.69
2022-10-11T15:50:41.506Z,68.77
2022-10-11T15:53:31.145Z,70.56
2022-10-11T15:56:05.646Z,72.25
2022-10-11T15:58:40.030Z,73.48
2022-10-11T16:01:14.806Z,74.07
2022-10-11T16:03:42.212Z,74.70
2022-10-11T16:06:10.929Z,75.50
2022-10-11T16:08:38.371Z,76.95
2022-10-11T16:11:08.187Z,77.66
2022-10-11T16:13:36.455Z,77.93
2022-10-11T16:16:06.897Z,78.65
2022-10-11T16:18:35.902Z,79.09
2022-10-11T16:21:13.151Z,79.85
2022-10-11T16:23:40.392Z,80.43
2022-10-11T16:26:13.518Z,80.96
2022-10-11T16:28:42.106Z,81.85
2022-10-11T16:31:14.493Z,81.75
2022-10-11T16:33:47.806Z,81.86
2022-10-11T16:36:40.757Z,81.91
2022-10-11T16:39:18.443Z,82.69
2022-10-11T16:41:46.247Z,83.10
2022-10-11T16:44:16.214Z,83.11
2022-10-11T16:46:48.261Z,83.81
2022-10-11T16:49:22.935Z,84.75
2022-10-11T16:51:51.742Z,84.21
2022-10-11T16:54:20.931Z,85.12
2022-10-11T16:56:49.615Z,84.95
2022-10-11T16:59:17.047Z,85.62
2022-10-11T17:01:45.240Z,85.21
2022-10-11T17:04:13.517Z,86.49
2022-10-11T17:06:41.254Z,87.65
2022-10-11T17:09:08.559Z,87.02
2022-10-11T17:11:35.604Z,87.25
2022-10-11T17:14:02.713Z,87.40
2022-10-11T17:16:29.615Z,87.68
2022-10-11T17:18:56.339Z,87.92
2022-10-11T17:21:23.976Z,88.29
2022-10-11T17:23:50.829Z,88.54
2022-10-11T17:26:26.699Z,89.04
2022-10-11T17:28:56.238Z,89.04
2022-10-11T17:31:24.366Z,88.97
2022-10-11T17:33:53.140Z,89.15
2022-10-11T17:36:31.773Z,90.17
2022-10-11T17:39:02.189Z,90.50
2022-10-11T17:41:32.096Z,91.02
2022-10-11T17:44:01.154Z,90.77
2022-10-11T17:46:32.271Z,90.85
2022-10-11T17:49:05.833Z,90.84
2022-10-11T17:51:34.222Z,91.14
2022-10-11T17:54:01.299Z,91.19
2022-10-11T17:56:32.390Z,91.39
2022-10-11T17:59:02.013Z,91.39
2022-10-11T18:01:29.823Z,91.10
2022-10-11T18:04:00.049Z,91.27
2022-10-11T18:06:31.467Z,92.80
2022-10-11T18:09:03.931Z,93.28
2022-10-11T18:11:31.813Z,93.26
2022-10-11T18:13:58.559Z,92.23
2022-10-11T18:16:30.549Z,93.38
2022-10-11T18:18:58.228Z,93.55
2022-10-11T18:21:34.026Z,93.36
2022-10-11T18:24:07.849Z,93.38
2022-10-11T18:26:34.558Z,93.16
2022-10-11T18:29:01.291Z,93.45
2022-10-11T18:31:30.975Z,94.01
2022-10-11T18:33:57.851Z,94.76
2022-10-11T18:36:28.691Z,94.37
2022-10-11T18:38:59.525Z,93.29
2022-10-11T18:41:30.690Z,94.68
2022-10-11T18:44:05.389Z,95.16
2022-10-11T18:46:33.113Z,95.22
2022-10-11T18:49:02.232Z,95.68
2022-10-11T18:51:36.352Z,95.85
2022-10-11T18:54:04.918Z,96.09
2022-10-11T18:56:34.661Z,95.46
2022-10-11T18:59:01.834Z,95.19
2022-10-11T19:01:35.825Z,95.50
2022-10-11T19:04:04.814Z,95.25
2022-10-11T19:06:39.610Z,95.18
2022-10-11T19:09:14.067Z,94.81
2022-10-11T19:11:41.813Z,95.09
2022-10-11T19:14:14.633Z,95.54
2022-10-11T19:16:49.639Z,96.44
2022-10-11T19:19:18.458Z,96.93
2022-10-11T19:21:48.606Z,97.05
2022-10-11T19:24:22.165Z,97.55
2022-10-11T19:26:53.000Z,97.80
2022-10-11T19:29:23.695Z,98.27
2022-10-11T19:31:57.421Z,97.70
2022-10-11T19:34:27.604Z,98.54
2022-10-11T19:37:00.733Z,98.36
2022-10-11T19:39:29.620Z,99.05
2022-10-11T19:41:56.559Z,98.78
2022-10-11T19:44:23.371Z,97.45
2022-10-11T19:46:51.898Z,96.76
2022-10-11T19:49:22.616Z,95.66
2022-10-11T19:51:49.824Z,95.91
2022-10-11T19:54:17.071Z,95.58
2022-10-11T19:56:44.801Z,95.60
2022-10-11T19:59:12.889Z,97.33
2022-10-11T20:01:40.361Z,97.52
2022-10-11T20:04:27.561Z,97.55
2022-10-11T20:06:58.590Z,97.01
2022-10-11T20:09:30.363Z,97.34
2022-10-11T20:11:57.740Z,96.88
2022-10-11T20:14:25.240Z,96.25
2022-10-11T20:16:52.089Z,95.58
2022-10-11T20:19:19.467Z,95.84
2022-10-11T20:21:47.585Z,95.71
2022-10-11T20:24:14.533Z,97.11
2022-10-11T20:26:41.286Z,97.54
2022-10-11T20:29:07.947Z,97.17
2022-10-11T20:31:38.775Z,97.18
2022-10-11T20:34:07.490Z,96.91
2022-10-11T20:36:36.367Z,97.29
2022-10-11T20:39:06.281Z,96.36
2022-10-11T20:41:39.776Z,96.56
2022-10-11T20:44:09.046Z,97.38
2022-10-11T20:46:39.040Z,98.23
2022-10-11T20:49:11.251Z,98.24
2022-10-11T20:51:41.465Z,98.65
2022-10-11T20:54:14.150Z,97.90
2022-10-11T20:56:43.994Z,97.21
2022-10-11T20:59:10.831Z,96.89
2022-10-11T21:01:40.921Z,96.42
2022-10-11T21:04:18.743Z,96.15
2022-10-11T21:06:47.039Z,96.02
2022-10-11T21:09:16.539Z,96.56
2022-10-11T21:11:43.924Z,96.23
2022-10-11T21:14:10.598Z,96.27
2022-10-11T21:16:37.843Z,97.79
2022-10-11T21:19:04.598Z,98.00
2022-10-11T21:21:31.816Z,98.58
2022-10-11T21:24:01.855Z,98.71
2022-10-11T21:26:30.457Z,99.60
2022-10-11T21:29:00.806Z,99.97
2022-10-11T21:31:31.257Z,99.91
2022-10-11T21:34:00.935Z,99.28
2022-10-11T21:36:27.825Z,98.58
2022-10-11T21:38:54.861Z,99.30
2022-10-11T21:41:31.249Z,99.26
2022-10-11T21:43:58.195Z,98.17
2022-10-11T21:46:54.160Z,98.42
2022-10-11T21:49:15.654Z,98.53
2022-10-11T21:51:42.661Z,98.22
2022-10-11T21:54:09.738Z,98.67
2022-10-11T21:56:36.397Z,99.62
2022-10-11T21:59:06.516Z,99.45
2022-10-11T22:01:39.427Z,98.87
2022-10-11T22:04:09.601Z,99.06
2022-10-11T22:06:38.099Z,99.02
2022-10-11T22:09:06.578Z,98.32
2022-10-11T22:11:33.273Z,98.94
2022-10-11T22:13:59.987Z,100.00
2022-10-11T22:16:26.601Z,99.67
2022-10-11T22:18:54.077Z,98.80
2022-10-11T22:21:23.872Z,98.20
2022-10-11T22:23:53.551Z,97.75
2022-10-11T22:26:24.335Z,97.16
2022-10-11T22:28:51.217Z,96.92
2022-10-11T22:31:19.873Z,96.85
2022-10-11T22:33:46.977Z,96.81
2022-10-11T22:36:17.157Z,97.43
2022-10-11T22:38:44.380Z,98.79
2022-10-11T22:41:11.488Z,99.33
2022-10-11T22:43:39.022Z,99.90
2022-10-11T22:46:09.274Z,99.45
2022-10-11T22:48:36.219Z,99.79
2022-10-11T22:51:03.440Z,99.82
2022-10-11T22:53:30.829Z,99.74
2022-10-11T22:55:58.233Z,99.71
2022-10-11T22:58:25.189Z,99.96
2022-10-11T23:00:51.961Z,100.00
2022-10-11T23:03:19.141Z,100.00
2022-10-11T23:05:58.241Z,100.00
2022-10-11T23:08:25.626Z,100.00
2022-10-11T23:10:53.474Z,100.00
2022-10-11T23:13:20.666Z,100.00
2022-10-11T23:15:47.441Z,100.00
2022-10-11T23:18:17.053Z,100.00
2022-10-11T23:20:43.932Z,99.96
2022-10-11T23:23:10.651Z,100.00
2022-10-11T23:25:37.286Z,99.62
2022-10-11T23:28:04.106Z,99.53
2022-10-11T23:30:31.477Z,99.98
2022-10-11T23:32:58.231Z,100.00
2022-10-11T23:35:25.222Z,100.00
2022-10-11T23:37:54.783Z,100.00
2022-10-11T23:40:21.721Z,100.00
2022-10-11T23:42:48.361Z,99.61
2022-10-11T23:45:15.232Z,99.96
2022-10-11T23:47:41.933Z,100.00
2022-10-11T23:50:09.271Z,100.00
2022-10-11T23:52:36.643Z,100.00
2022-10-11T23:55:04.241Z,99.95
2022-10-11T23:57:30.872Z,99.98
2022-10-11T23:59:57.458Z,100.00
